Walnut Bottom, Pennsylvania
Current Conditions -  °F | °C
As of 1:53 PM on Thursday 18 Dec 2014 (Local Time) from KRYT Reporting Station
Overcast Overcast  
Wind Chill: 27°   Ceiling: 3000
Heat Index: 35°   Visibility: 10mi
Dew Point: 21°   Wind: 12mph
Humidity: 57%   Direction: 260°W
Pressure: 30.05"   Gusts: 17mph
Location:  40.09°N, 77.4°W
Report Text: KRYT 181853Z AUTO 26010G15KT 10SM OVC030 02/M06 A3005 RMK AO2 SLP190 T00171061 $
Loading
Personal Weather Stations






























Interactive Weather Map New forecast layout! Learn more

10-Day Weather Forecast

Advertisements
Track Severe Weather on mobile